Time;durP1;ratioP1;P1;durP2;ratioP2;P2;SDS_P1;SDS_P2;PMS_P1;PMS_P2;Temp;Humidity;BMP_temperature;BMP_pressure;BME280_temperature;BME280_humidity;BME280_pressure;Samples;Min_cycle;Max_cycle;Signal;HPM_P1;HPM_P2
2024/03/05 00:01:17;;;;;;;;;;;;;;;10.78;83.43;98207.88;68389;1279;1016082;-64
2024/03/05 00:04:19;;;;;;;;;;;;;;;10.80;82.88;98208.08;68398;1279;1015352;-60
2024/03/05 00:07:22;;;;;;;;;;;;;;;10.81;82.55;98215.05;68388;1279;1015827;-69
2024/03/05 00:10:24;;;;;;;;;;;;;;;10.67;83.00;98209.05;68395;1279;1015647;-68
2024/03/05 00:13:27;;;;;;;;;;;;;;;10.73;82.39;98209.81;68391;1279;1014996;-66
2024/03/05 00:16:29;;;;;;;;;;;;;;;10.79;81.79;98209.71;68400;1279;1016020;-70
2024/03/05 00:19:32;;;;;;;;;;;;;;;10.79;81.54;98214.82;68392;1279;1015737;-70
2024/03/05 00:22:34;;;;;;;;;;;;;;;10.82;81.29;98219.11;68396;1279;1016095;-68
2024/03/05 00:25:37;;;;;;;;;;;;;;;10.91;80.95;98221.15;68403;1279;1015952;-60
2024/03/05 00:28:40;;;;;;;;;;;;;;;10.90;80.66;98215.91;68403;1279;1016038;-59
2024/03/05 00:31:43;;;;;;;;;;;;;;;10.76;81.76;98210.63;68401;1279;1016077;-69
2024/03/05 00:34:45;;;;;;;;;;;;;;;10.65;82.65;98203.95;68418;1279;1015972;-69
2024/03/05 00:37:49;;;;;;;;;;;;;;;10.50;83.16;98203.77;68413;1279;1015584;-60
2024/03/05 00:40:52;;;;;;;;;;;;;;;10.31;84.75;98202.08;68420;1279;1016462;-64
2024/03/05 00:43:55;;;;;;;;;;;;;;;10.28;85.05;98194.05;68399;1279;1016092;-70
2024/03/05 00:46:57;;;;;;;;;;;;;;;10.23;86.11;98197.70;68389;1279;1015304;-66
2024/03/05 00:50:00;;;;;;;;;;;;;;;10.10;87.11;98204.57;68395;1279;1016066;-67
2024/03/05 00:53:04;;;;;;;;;;;;;;;10.08;86.82;98210.86;68406;1279;1015311;-63
2024/03/05 00:56:06;;;;;;;;;;;;;;;10.16;86.07;98214.50;68407;1279;1016081;-60
2024/03/05 00:59:11;;;;;;;;;;;;;;;10.22;85.99;98211.23;68400;1279;1015358;-60
2024/03/05 01:02:15;;;;;;;;;;;;;;;10.26;85.51;98207.84;68398;1279;1015626;-65
2024/03/05 01:05:18;;;;;;;;;;;;;;;10.24;85.61;98215.66;68404;1279;1016003;-62
2024/03/05 01:08:21;;;;;;;;;;;;;;;10.44;85.43;98220.61;68387;1279;1016054;-59
2024/03/05 01:11:24;;;;;;;;;;;;;;;10.53;84.56;98218.20;68404;1279;1015495;-69
2024/03/05 01:14:26;;;;;;;;;;;;;;;10.41;84.75;98217.83;68399;1279;1016214;-60
2024/03/05 01:17:29;;;;;;;;;;;;;;;10.40;84.61;98216.30;68386;1279;1016031;-66
2024/03/05 01:20:31;;;;;;;;;;;;;;;10.82;82.22;98214.78;68428;1279;1015133;-63
2024/03/05 01:23:34;;;;;;;;;;;;;;;11.00;80.57;98213.13;68415;1279;1015743;-66
2024/03/05 01:26:37;;;;;;;;;;;;;;;10.87;81.13;98207.44;68416;1279;1016057;-62
2024/03/05 01:29:41;;;;;;;;;;;;;;;10.82;81.44;98205.37;68404;1279;1015581;-70
2024/03/05 01:32:46;;;;;;;;;;;;;;;10.82;81.26;98207.09;68401;1279;1015435;-65
2024/03/05 01:35:49;;;;;;;;;;;;;;;10.99;80.23;98203.96;68430;1279;1015507;-69
2024/03/05 01:38:52;;;;;;;;;;;;;;;11.02;79.82;98202.67;68389;1279;1015255;-69
2024/03/05 01:41:55;;;;;;;;;;;;;;;11.04;79.42;98208.95;68394;1279;1016055;-60
2024/03/05 01:44:58;;;;;;;;;;;;;;;11.29;78.45;98220.48;68417;1279;1014730;-69
2024/03/05 01:48:01;;;;;;;;;;;;;;;12.24;73.15;98218.15;68401;1279;1015589;-69
2024/03/05 01:51:03;;;;;;;;;;;;;;;12.28;72.29;98217.83;68393;1279;1016018;-69
2024/03/05 01:54:06;;;;;;;;;;;;;;;12.30;71.25;98216.77;68411;1279;1015296;-69
2024/03/05 01:57:09;;;;;;;;;;;;;;;12.33;71.16;98212.86;68415;1279;1015692;-68
2024/03/05 02:00:15;;;;;;;;;;;;;;;12.43;70.84;98213.33;68417;1279;1015501;-60
2024/03/05 02:03:18;;;;;;;;;;;;;;;12.26;70.96;98207.29;68400;1279;1015378;-65
2024/03/05 02:06:21;;;;;;;;;;;;;;;12.11;71.54;98212.51;68427;1279;1015564;-61
2024/03/05 02:09:24;;;;;;;;;;;;;;;12.01;72.13;98220.23;68410;1279;1015973;-70
2024/03/05 02:12:26;;;;;;;;;;;;;;;11.95;72.57;98217.02;68409;1279;1016446;-70
2024/03/05 02:15:29;;;;;;;;;;;;;;;12.05;71.76;98216.98;68422;1279;1015468;-70
2024/03/05 02:18:31;;;;;;;;;;;;;;;12.15;71.15;98211.81;68430;1279;1015286;-69
2024/03/05 02:21:34;;;;;;;;;;;;;;;12.24;70.43;98211.30;68392;1279;1015153;-60
2024/03/05 02:24:37;;;;;;;;;;;;;;;12.18;70.75;98213.86;68417;1279;1015794;-69
2024/03/05 02:27:40;;;;;;;;;;;;;;;12.19;70.51;98214.84;68419;1279;1015537;-69
2024/03/05 02:30:43;;;;;;;;;;;;;;;12.12;70.83;98219.77;68412;1279;1015212;-62
2024/03/05 02:33:45;;;;;;;;;;;;;;;12.06;71.87;98225.66;68413;1279;1015729;-63
2024/03/05 02:36:48;;;;;;;;;;;;;;;12.10;71.28;98225.88;68412;1279;1016053;-70
2024/03/05 02:39:50;;;;;;;;;;;;;;;12.04;71.52;98238.44;68426;1279;1015944;-61
2024/03/05 02:42:53;;;;;;;;;;;;;;;12.07;71.25;98247.66;68402;1279;1016275;-69
2024/03/05 02:45:56;;;;;;;;;;;;;;;12.17;70.79;98247.93;68402;1279;1015550;-69
2024/03/05 02:48:59;;;;;;;;;;;;;;;12.12;70.72;98255.16;68418;1279;1015419;-65
2024/03/05 02:52:02;;;;;;;;;;;;;;;12.16;70.43;98257.46;68420;1279;1016362;-60
2024/03/05 02:55:05;;;;;;;;;;;;;;;12.29;70.28;98262.10;68422;1279;1015779;-67
2024/03/05 02:58:07;;;;;;;;;;;;;;;12.26;69.63;98262.33;68402;1279;1016023;-69
2024/03/05 03:01:10;;;;;;;;;;;;;;;12.12;70.06;98268.33;68422;1279;1016151;-63
2024/03/05 03:04:13;;;;;;;;;;;;;;;12.08;70.21;98266.98;68421;1279;1015211;-66
2024/03/05 03:07:16;;;;;;;;;;;;;;;11.90;71.19;98265.54;68424;1279;1015869;-67
2024/03/05 03:10:19;;;;;;;;;;;;;;;11.80;71.49;98269.25;68414;1279;1016115;-60
2024/03/05 03:13:23;;;;;;;;;;;;;;;11.84;70.92;98266.67;68409;1279;1015747;-66
2024/03/05 03:16:25;;;;;;;;;;;;;;;11.80;71.74;98269.80;68410;1279;1015316;-68
2024/03/05 03:19:28;;;;;;;;;;;;;;;11.83;70.92;98271.48;68406;1279;1015694;-69
2024/03/05 03:22:31;;;;;;;;;;;;;;;11.64;71.40;98278.48;68418;1279;1014720;-68
2024/03/05 03:25:33;;;;;;;;;;;;;;;11.35;72.64;98271.29;68421;1279;1015639;-66
2024/03/05 03:28:37;;;;;;;;;;;;;;;11.34;72.43;98267.38;68409;1279;1015973;-69
2024/03/05 03:31:40;;;;;;;;;;;;;;;11.53;71.50;98268.41;68402;1279;1015933;-61
2024/03/05 03:34:42;;;;;;;;;;;;;;;11.41;71.73;98272.28;68407;1279;1015588;-60
2024/03/05 03:37:45;;;;;;;;;;;;;;;11.40;71.79;98270.42;68422;1279;1015528;-63
2024/03/05 03:40:47;;;;;;;;;;;;;;;11.42;71.78;98272.60;68380;1279;1015678;-59
2024/03/05 03:47:14;;;;;;;;;;;;;;;11.69;70.26;98282.70;68345;1281;1015759;-69
2024/03/05 03:50:17;;;;;;;;;;;;;;;11.62;70.44;98285.61;68351;1281;1015568;-68
2024/03/05 03:53:20;;;;;;;;;;;;;;;11.54;70.76;98287.42;68354;1281;1015819;-61
2024/03/05 03:56:22;;;;;;;;;;;;;;;11.61;70.96;98291.48;68350;1281;1015480;-59
2024/03/05 03:59:25;;;;;;;;;;;;;;;11.64;70.41;98295.15;68353;1281;1015049;-61
2024/03/05 04:02:27;;;;;;;;;;;;;;;11.61;70.21;98292.18;68349;1281;1016684;-60
2024/03/05 04:05:30;;;;;;;;;;;;;;;11.48;70.55;98291.78;68362;1281;1016025;-64
2024/03/05 04:08:33;;;;;;;;;;;;;;;11.35;70.86;98290.79;68362;1281;1015173;-59
2024/03/05 04:11:36;;;;;;;;;;;;;;;11.32;70.37;98289.56;68357;1281;1015551;-62
2024/03/05 04:14:38;;;;;;;;;;;;;;;11.18;70.75;98294.95;68350;1281;1015324;-65
2024/03/05 04:17:41;;;;;;;;;;;;;;;11.13;71.12;98294.83;68367;1281;1015891;-60
2024/03/05 04:20:44;;;;;;;;;;;;;;;11.14;71.35;98293.30;68345;1281;1015582;-70
2024/03/05 04:23:46;;;;;;;;;;;;;;;11.19;71.16;98298.05;68348;1281;1015551;-69
2024/03/05 04:26:52;;;;;;;;;;;;;;;11.26;70.83;98298.61;68357;1281;1014677;-68
2024/03/05 04:29:57;;;;;;;;;;;;;;;11.26;70.38;98301.00;68357;1281;1015953;-65
2024/03/05 04:33:03;;;;;;;;;;;;;;;11.32;70.60;98299.39;68368;1281;1015760;-70
2024/03/05 04:36:09;;;;;;;;;;;;;;;11.29;70.12;98303.13;68361;1281;1015610;-63
2024/03/05 04:39:15;;;;;;;;;;;;;;;11.23;70.53;98305.42;68357;1280;1015807;-69
2024/03/05 04:42:18;;;;;;;;;;;;;;;11.21;70.23;98307.14;68426;1279;1016007;-70
2024/03/05 04:45:21;;;;;;;;;;;;;;;11.09;70.60;98308.35;68441;1279;1015726;-67
2024/03/05 04:48:24;;;;;;;;;;;;;;;11.12;71.11;98311.13;68432;1279;1015231;-70
2024/03/05 04:51:26;;;;;;;;;;;;;;;11.16;70.77;98311.74;68431;1279;1015225;-63
2024/03/05 04:54:29;;;;;;;;;;;;;;;11.06;70.45;98310.16;68433;1279;1015215;-69
2024/03/05 04:57:32;;;;;;;;;;;;;;;10.97;70.97;98310.11;68434;1279;1015688;-60
2024/03/05 05:00:34;;;;;;;;;;;;;;;11.10;70.64;98311.95;68422;1279;1016033;-63
2024/03/05 05:03:37;;;;;;;;;;;;;;;11.17;70.50;98315.87;68432;1279;1016331;-70
2024/03/05 05:06:39;;;;;;;;;;;;;;;11.20;69.83;98317.01;68440;1279;1015514;-60
2024/03/05 05:09:43;;;;;;;;;;;;;;;11.22;69.37;98316.59;68436;1279;1015694;-62
2024/03/05 05:12:46;;;;;;;;;;;;;;;11.21;69.36;98316.95;68438;1279;1016130;-65
2024/03/05 05:15:49;;;;;;;;;;;;;;;11.23;68.88;98313.69;68426;1279;1015391;-65
2024/03/05 05:18:51;;;;;;;;;;;;;;;11.31;68.68;98314.35;68444;1279;1016367;-61
2024/03/05 05:21:54;;;;;;;;;;;;;;;11.27;68.24;98310.96;68418;1279;1016153;-61
2024/03/05 05:24:57;;;;;;;;;;;;;;;11.28;67.96;98317.89;68420;1279;1015701;-65
2024/03/05 05:28:00;;;;;;;;;;;;;;;11.36;67.57;98323.05;68435;1279;1015118;-61
2024/03/05 05:31:05;;;;;;;;;;;;;;;11.07;69.44;98328.98;68432;1279;1015655;-60
2024/03/05 05:34:08;;;;;;;;;;;;;;;11.00;69.37;98333.99;68422;1279;1015318;-70
2024/03/05 05:37:10;;;;;;;;;;;;;;;10.98;69.38;98341.51;68435;1279;1015814;-69
2024/03/05 05:40:16;;;;;;;;;;;;;;;11.13;68.88;98346.25;68411;1279;1015155;-69
2024/03/05 05:43:18;;;;;;;;;;;;;;;11.01;69.04;98348.86;68430;1279;1016357;-70
2024/03/05 05:46:22;;;;;;;;;;;;;;;11.32;68.59;98348.21;68426;1279;1015942;-69
2024/03/05 05:49:24;;;;;;;;;;;;;;;11.45;68.17;98350.65;68443;1279;1015652;-60
2024/03/05 05:52:27;;;;;;;;;;;;;;;11.49;68.02;98353.14;68453;1279;1015933;-69
2024/03/05 05:55:30;;;;;;;;;;;;;;;11.39;67.90;98352.66;68441;1279;1014519;-70
2024/03/05 05:58:33;;;;;;;;;;;;;;;11.33;67.97;98359.70;68425;1279;1015414;-69
2024/03/05 06:01:37;;;;;;;;;;;;;;;11.39;67.50;98355.42;68476;1279;1015379;-60
2024/03/05 06:04:40;;;;;;;;;;;;;;;11.35;68.25;98362.69;68429;1279;1016030;-60
2024/03/05 06:07:43;;;;;;;;;;;;;;;11.37;68.01;98367.12;68436;1279;1016141;-65
2024/03/05 06:10:45;;;;;;;;;;;;;;;11.34;68.04;98366.63;68420;1279;1015697;-64
2024/03/05 06:13:48;;;;;;;;;;;;;;;11.49;68.08;98368.02;68450;1279;1015623;-67
2024/03/05 06:16:52;;;;;;;;;;;;;;;11.61;67.83;98373.64;68434;1279;1016071;-69
2024/03/05 06:19:54;;;;;;;;;;;;;;;11.86;66.64;98377.95;68436;1279;1015424;-68
2024/03/05 06:22:58;;;;;;;;;;;;;;;11.94;66.19;98381.96;68443;1279;1015886;-69
2024/03/05 06:26:01;;;;;;;;;;;;;;;11.90;65.80;98379.77;68431;1279;1015602;-60
2024/03/05 06:29:06;;;;;;;;;;;;;;;11.95;66.09;98384.12;68413;1279;1015921;-70
2024/03/05 06:32:10;;;;;;;;;;;;;;;12.02;65.65;98389.45;68449;1279;1015649;-70
2024/03/05 06:35:12;;;;;;;;;;;;;;;11.99;65.72;98394.19;68440;1279;1015398;-70
2024/03/05 06:38:15;;;;;;;;;;;;;;;12.07;65.14;98403.59;68420;1279;1015238;-69
2024/03/05 06:41:18;;;;;;;;;;;;;;;11.92;65.19;98406.08;68438;1279;1016030;-69
2024/03/05 06:44:25;;;;;;;;;;;;;;;11.73;65.96;98412.91;68433;1279;1015889;-69
2024/03/05 06:47:37;;;;;;;;;;;;;;;11.56;66.05;98413.01;68435;1279;1015369;-69
2024/03/05 06:50:42;;;;;;;;;;;;;;;11.46;66.58;98421.23;68428;1279;1015451;-69
2024/03/05 06:57:05;;;;;;;;;;;;;;;11.44;66.85;98418.27;68422;1279;1015894;-69
2024/03/05 07:00:15;;;;;;;;;;;;;;;11.48;66.88;98414.16;68428;1279;1015929;-70
2024/03/05 07:03:17;;;;;;;;;;;;;;;11.57;66.70;98415.73;68435;1279;1016074;-65
2024/03/05 07:06:21;;;;;;;;;;;;;;;11.70;66.44;98419.61;68429;1279;1015320;-64
2024/03/05 07:09:30;;;;;;;;;;;;;;;11.84;66.30;98423.79;68441;1279;1016060;-60
2024/03/05 07:12:37;;;;;;;;;;;;;;;11.97;66.01;98429.23;68433;1279;1015215;-70
2024/03/05 07:15:39;;;;;;;;;;;;;;;11.89;65.91;98426.24;68439;1279;1015733;-70
2024/03/05 07:18:43;;;;;;;;;;;;;;;11.90;66.33;98434.42;68438;1279;1015617;-69
2024/03/05 07:21:45;;;;;;;;;;;;;;;11.85;66.12;98439.69;68425;1279;1015853;-65
2024/03/05 07:24:48;;;;;;;;;;;;;;;11.78;65.93;98447.17;68423;1279;1015522;-67
2024/03/05 07:27:50;;;;;;;;;;;;;;;11.62;66.10;98460.08;68427;1279;1015724;-69
2024/03/05 07:30:53;;;;;;;;;;;;;;;11.23;67.41;98468.36;68406;1279;1015980;-68
2024/03/05 07:33:56;;;;;;;;;;;;;;;11.07;68.62;98460.75;68426;1279;1016568;-69
2024/03/05 07:36:58;;;;;;;;;;;;;;;11.06;68.69;98460.14;68429;1279;1016163;-69
2024/03/05 07:40:09;;;;;;;;;;;;;;;11.20;68.29;98454.96;68424;1279;1015389;-66
2024/03/05 07:43:17;;;;;;;;;;;;;;;11.21;68.11;98462.91;68438;1279;1015437;-69
2024/03/05 07:46:19;;;;;;;;;;;;;;;11.15;68.72;98469.64;68441;1279;1015568;-69
2024/03/05 07:49:21;;;;;;;;;;;;;;;11.22;68.04;98468.09;68448;1279;1015551;-60
2024/03/05 07:52:24;;;;;;;;;;;;;;;11.27;67.94;98473.72;68439;1279;1015910;-63
2024/03/05 07:55:27;;;;;;;;;;;;;;;11.30;68.53;98474.88;68430;1279;1015293;-70
2024/03/05 07:58:30;;;;;;;;;;;;;;;11.57;67.51;98471.46;68433;1279;1015746;-69
2024/03/05 08:01:33;;;;;;;;;;;;;;;11.74;65.64;98479.84;68439;1279;1015238;-60
2024/03/05 08:04:36;;;;;;;;;;;;;;;11.72;65.89;98480.55;65836;1280;6371864;-65
2024/03/05 08:07:38;;;;;;;;;;;;;;;11.73;65.54;98482.44;68435;1279;1015175;-70
2024/03/05 08:10:41;;;;;;;;;;;;;;;11.72;65.40;98480.38;68446;1280;1015812;-69
2024/03/05 08:13:45;;;;;;;;;;;;;;;11.61;65.95;98483.60;68425;1279;1014756;-70
2024/03/05 08:16:48;;;;;;;;;;;;;;;11.64;66.29;98493.92;68424;1279;1015406;-70
2024/03/05 08:19:51;;;;;;;;;;;;;;;11.61;65.88;98494.08;68442;1279;1015466;-69
2024/03/05 08:22:54;;;;;;;;;;;;;;;11.57;66.77;98494.58;68446;1279;1015575;-69
2024/03/05 08:25:56;;;;;;;;;;;;;;;11.57;66.62;98495.08;68455;1279;1016034;-69
2024/03/05 08:28:59;;;;;;;;;;;;;;;11.62;66.26;98497.52;68447;1279;1016144;-69
2024/03/05 08:32:03;;;;;;;;;;;;;;;11.80;65.46;98489.80;68445;1280;1016274;-70
2024/03/05 08:35:06;;;;;;;;;;;;;;;11.73;66.17;98493.64;68420;1280;1016163;-69
2024/03/05 08:38:09;;;;;;;;;;;;;;;11.85;65.81;98494.20;68431;1280;1015417;-67
2024/03/05 08:41:12;;;;;;;;;;;;;;;12.01;65.07;98500.23;68439;1279;1015438;-60
2024/03/05 08:44:23;;;;;;;;;;;;;;;12.03;65.03;98502.55;68367;1280;1016331;-61
2024/03/05 08:47:26;;;;;;;;;;;;;;;12.14;64.34;98509.17;68423;1279;1015647;-69
2024/03/05 08:50:29;;;;;;;;;;;;;;;12.17;64.76;98514.20;68442;1279;1016145;-62
2024/03/05 08:53:32;;;;;;;;;;;;;;;12.18;64.02;98523.17;68442;1280;1015346;-65
2024/03/05 08:56:35;;;;;;;;;;;;;;;11.98;63.63;98524.11;68437;1280;1014332;-63
2024/03/05 08:59:37;;;;;;;;;;;;;;;11.89;64.28;98528.55;68438;1280;1015576;-63
2024/03/05 09:02:40;;;;;;;;;;;;;;;11.87;64.85;98530.67;68432;1280;1015344;-69
2024/03/05 09:05:43;;;;;;;;;;;;;;;11.87;65.06;98533.11;68429;1280;1016088;-61
2024/03/05 09:08:46;;;;;;;;;;;;;;;11.73;64.74;98539.86;68444;1280;1015502;-70
2024/03/05 09:11:48;;;;;;;;;;;;;;;11.51;65.42;98536.63;68425;1280;1016645;-65
2024/03/05 09:14:51;;;;;;;;;;;;;;;11.56;65.56;98540.19;68441;1279;1015587;-64
2024/03/05 09:17:53;;;;;;;;;;;;;;;11.62;64.85;98543.09;68435;1280;1015558;-65
2024/03/05 09:20:56;;;;;;;;;;;;;;;11.51;65.12;98548.25;68426;1280;1015572;-69
2024/03/05 09:23:58;;;;;;;;;;;;;;;11.58;64.28;98550.70;68418;1279;1015898;-68
2024/03/05 09:27:02;;;;;;;;;;;;;;;11.60;63.43;98555.09;68436;1280;1015617;-69
2024/03/05 09:30:05;;;;;;;;;;;;;;;11.54;63.88;98557.27;68445;1279;1015527;-66
2024/03/05 09:33:09;;;;;;;;;;;;;;;11.37;65.03;98557.96;68432;1280;1016174;-69
2024/03/05 09:36:12;;;;;;;;;;;;;;;11.44;65.51;98563.39;68427;1279;1015668;-69
2024/03/05 09:39:15;;;;;;;;;;;;;;;11.52;65.41;98567.59;68416;1279;1016014;-70
2024/03/05 09:42:18;;;;;;;;;;;;;;;11.70;64.72;98568.09;68428;1279;1015791;-69
2024/03/05 09:45:20;;;;;;;;;;;;;;;11.84;64.22;98573.23;68437;1279;1015936;-69
2024/03/05 09:48:23;;;;;;;;;;;;;;;11.94;64.06;98583.80;68422;1279;1016602;-69
2024/03/05 09:51:26;;;;;;;;;;;;;;;11.98;63.05;98592.98;68411;1279;1016277;-69
2024/03/05 09:54:28;;;;;;;;;;;;;;;11.85;63.28;98591.40;68420;1279;1016118;-69
2024/03/05 09:57:30;;;;;;;;;;;;;;;12.04;63.53;98580.32;68433;1279;1015456;-69
2024/03/05 10:00:34;;;;;;;;;;;;;;;12.14;63.37;98582.04;68424;1279;1016248;-66
2024/03/05 10:03:37;;;;;;;;;;;;;;;12.24;63.02;98587.12;68435;1279;1016219;-59
2024/03/05 10:06:41;;;;;;;;;;;;;;;12.35;63.30;98588.64;68431;1279;1014502;-69
2024/03/05 10:09:44;;;;;;;;;;;;;;;12.44;62.35;98591.59;68420;1279;1016206;-67
2024/03/05 10:12:46;;;;;;;;;;;;;;;12.45;62.24;98593.52;68424;1279;1014551;-70
2024/03/05 10:15:49;;;;;;;;;;;;;;;12.47;62.21;98593.14;68427;1280;1015756;-69
2024/03/05 10:18:53;;;;;;;;;;;;;;;12.51;62.30;98589.20;68431;1279;1015156;-70
2024/03/05 10:21:55;;;;;;;;;;;;;;;12.64;62.42;98587.34;68433;1280;1015338;-70
2024/03/05 10:24:58;;;;;;;;;;;;;;;12.65;61.76;98587.16;68441;1280;1015363;-68
2024/03/05 10:28:00;;;;;;;;;;;;;;;12.63;62.04;98587.31;68418;1279;1015940;-69
2024/03/05 10:31:04;;;;;;;;;;;;;;;12.69;62.07;98593.52;68405;1279;1015269;-66
2024/03/05 10:34:07;;;;;;;;;;;;;;;12.62;61.03;98596.45;68424;1279;1015437;-63
2024/03/05 10:37:10;;;;;;;;;;;;;;;12.66;61.48;98591.77;68420;1279;1015480;-59
2024/03/05 10:40:12;;;;;;;;;;;;;;;12.68;61.33;98587.44;68434;1279;1014329;-65
2024/03/05 10:43:18;;;;;;;;;;;;;;;12.68;60.96;98587.63;68418;1279;1015876;-61
2024/03/05 10:46:20;;;;;;;;;;;;;;;12.68;61.89;98590.93;68424;1279;1014886;-69
2024/03/05 10:49:23;;;;;;;;;;;;;;;12.85;61.90;98596.71;68440;1279;1015853;-60
2024/03/05 10:52:26;;;;;;;;;;;;;;;13.09;60.24;98603.24;68407;1279;1016066;-68
2024/03/05 10:55:28;;;;;;;;;;;;;;;13.18;60.29;98597.43;68421;1279;1015205;-63
2024/03/05 10:59:17;;;;;;;;;;;;;;;13.30;59.50;98600.73;68413;1279;1015483;-61
2024/03/05 11:02:00;;;;;;;;;;;;;;;13.38;58.93;98606.01;68401;1280;1015597;-60
2024/03/05 11:05:06;;;;;;;;;;;;;;;13.54;59.43;98605.15;68430;1280;1015948;-68
2024/03/05 11:08:09;;;;;;;;;;;;;;;13.60;58.11;98610.45;68412;1280;1015630;-64
2024/03/05 11:11:12;;;;;;;;;;;;;;;13.37;58.98;98610.64;68417;1279;1015937;-64
2024/03/05 11:14:14;;;;;;;;;;;;;;;13.10;60.47;98611.02;68418;1279;1015360;-61
2024/03/05 11:17:17;;;;;;;;;;;;;;;13.15;59.95;98616.11;68402;1279;1015308;-66
2024/03/05 11:20:19;;;;;;;;;;;;;;;13.14;59.87;98618.13;68412;1279;1016425;-69
2024/03/05 11:23:22;;;;;;;;;;;;;;;13.09;59.42;98626.05;68397;1279;1016054;-70
2024/03/05 11:26:25;;;;;;;;;;;;;;;12.92;59.61;98625.73;68421;1280;1015570;-70
2024/03/05 11:29:28;;;;;;;;;;;;;;;13.01;59.57;98623.81;68422;1279;1015481;-61
2024/03/05 11:32:31;;;;;;;;;;;;;;;12.89;59.84;98624.54;68422;1279;1016165;-70
2024/03/05 11:35:33;;;;;;;;;;;;;;;12.81;60.56;98621.05;68419;1279;1016603;-69
2024/03/05 11:38:36;;;;;;;;;;;;;;;12.72;60.88;98623.09;68406;1279;1015991;-67
2024/03/05 11:41:38;;;;;;;;;;;;;;;12.58;61.52;98622.05;68407;1279;1015683;-69
2024/03/05 11:44:42;;;;;;;;;;;;;;;12.53;61.88;98628.70;68411;1279;1016291;-69
2024/03/05 11:47:44;;;;;;;;;;;;;;;12.46;61.71;98626.21;68409;1279;1016227;-69
2024/03/05 11:50:47;;;;;;;;;;;;;;;12.49;62.11;98619.48;68405;1279;1014799;-70
2024/03/05 11:53:49;;;;;;;;;;;;;;;12.65;62.49;98617.33;68407;1279;1015688;-61
2024/03/05 11:56:52;;;;;;;;;;;;;;;12.86;62.06;98620.70;68427;1279;1016109;-69
2024/03/05 11:59:54;;;;;;;;;;;;;;;12.96;61.12;98622.77;68419;1279;1014877;-69
2024/03/05 12:02:57;;;;;;;;;;;;;;;13.09;61.08;98624.63;68405;1279;1015847;-69
2024/03/05 12:06:00;;;;;;;;;;;;;;;13.23;61.03;98623.94;68421;1279;1015663;-67
2024/03/05 12:09:03;;;;;;;;;;;;;;;13.32;59.73;98623.59;68433;1279;1016284;-70
2024/03/05 12:12:06;;;;;;;;;;;;;;;13.12;60.24;98631.27;68426;1279;1016700;-70
2024/03/05 12:15:08;;;;;;;;;;;;;;;13.01;60.05;98629.98;68403;1279;1015490;-61
2024/03/05 12:18:12;;;;;;;;;;;;;;;12.76;60.75;98631.08;68410;1279;1016006;-60
2024/03/05 12:21:14;;;;;;;;;;;;;;;12.69;61.14;98628.94;68402;1279;1016237;-66
2024/03/05 12:24:17;;;;;;;;;;;;;;;12.69;61.30;98627.34;68398;1279;1015264;-68
2024/03/05 12:27:19;;;;;;;;;;;;;;;12.88;61.12;98638.27;68395;1279;1015262;-60
2024/03/05 12:30:25;;;;;;;;;;;;;;;13.00;60.54;98641.44;68402;1279;1016052;-70
2024/03/05 12:33:27;;;;;;;;;;;;;;;13.12;60.62;98648.98;68405;1279;1016067;-69
2024/03/05 12:36:30;;;;;;;;;;;;;;;13.20;60.75;98651.02;68408;1279;1015046;-69
2024/03/05 12:39:33;;;;;;;;;;;;;;;13.25;60.75;98652.94;68398;1280;1015520;-69
2024/03/05 12:42:35;;;;;;;;;;;;;;;13.37;59.99;98652.42;68407;1280;1015568;-69
2024/03/05 12:45:38;;;;;;;;;;;;;;;13.49;59.86;98656.99;68404;1280;1014848;-70
2024/03/05 12:48:40;;;;;;;;;;;;;;;13.66;58.98;98660.58;68404;1280;1016094;-69
2024/03/05 12:51:47;;;;;;;;;;;;;;;13.64;58.81;98664.79;68411;1280;1015104;-66
2024/03/05 12:54:50;;;;;;;;;;;;;;;13.33;59.05;98672.19;68421;1280;1015403;-69
2024/03/05 12:57:52;;;;;;;;;;;;;;;13.49;58.50;98669.43;68421;1280;1016223;-70
2024/03/05 13:00:55;;;;;;;;;;;;;;;13.49;58.68;98666.79;68411;1280;1016247;-69
2024/03/05 13:03:58;;;;;;;;;;;;;;;13.66;58.51;98671.35;68420;1279;1015741;-60
2024/03/05 13:07:00;;;;;;;;;;;;;;;13.74;58.60;98674.92;68413;1280;1016102;-67
2024/03/05 13:10:06;;;;;;;;;;;;;;;13.75;58.80;98676.27;68394;1280;1015459;-62
2024/03/05 13:13:08;;;;;;;;;;;;;;;13.67;58.28;98674.23;68412;1279;1015728;-70
2024/03/05 13:16:12;;;;;;;;;;;;;;;13.58;58.37;98672.64;68392;1279;1015827;-62
2024/03/05 13:19:14;;;;;;;;;;;;;;;13.53;58.56;98675.66;68406;1279;1015913;-69
2024/03/05 13:22:17;;;;;;;;;;;;;;;13.36;58.82;98670.23;68417;1279;1015923;-64
2024/03/05 13:25:19;;;;;;;;;;;;;;;13.48;58.39;98677.40;68406;1279;1015015;-63
2024/03/05 13:28:23;;;;;;;;;;;;;;;13.40;58.69;98680.65;68405;1279;1016090;-66
2024/03/05 13:31:26;;;;;;;;;;;;;;;13.42;58.10;98687.73;68407;1279;1014725;-61
2024/03/05 13:34:29;;;;;;;;;;;;;;;13.23;59.36;98694.90;68416;1279;1015636;-69
2024/03/05 13:37:35;;;;;;;;;;;;;;;13.35;59.31;98695.25;68393;1279;1015494;-64
2024/03/05 13:40:37;;;;;;;;;;;;;;;13.36;58.61;98698.16;68394;1279;1015891;-63
2024/03/05 13:43:41;;;;;;;;;;;;;;;13.33;58.57;98699.96;68396;1279;1015291;-61
2024/03/05 13:46:43;;;;;;;;;;;;;;;13.26;58.37;98707.09;68393;1279;1015719;-68
2024/03/05 13:49:46;;;;;;;;;;;;;;;13.18;58.64;98707.66;68408;1279;1016501;-69
2024/03/05 13:52:49;;;;;;;;;;;;;;;13.13;58.57;98713.13;68393;1279;1015447;-68
2024/03/05 13:55:54;;;;;;;;;;;;;;;13.12;58.43;98716.36;68394;1279;1015873;-69
2024/03/05 13:58:57;;;;;;;;;;;;;;;13.13;58.53;98721.61;68399;1279;1016222;-60
2024/03/05 14:02:00;;;;;;;;;;;;;;;13.15;58.90;98728.09;68406;1279;1015930;-67
2024/03/05 14:05:02;;;;;;;;;;;;;;;13.16;58.58;98729.41;68411;1279;1015863;-61
2024/03/05 14:08:06;;;;;;;;;;;;;;;13.35;57.70;98731.92;68401;1279;1015761;-67
2024/03/05 14:11:08;;;;;;;;;;;;;;;13.19;58.44;98740.64;68410;1279;1015870;-60
2024/03/05 14:14:16;;;;;;;;;;;;;;;13.22;58.88;98737.47;68400;1279;1015067;-68
2024/03/05 14:17:19;;;;;;;;;;;;;;;13.24;58.39;98738.91;68398;1279;1015515;-63
2024/03/05 14:20:27;;;;;;;;;;;;;;;13.28;58.61;98738.75;68391;1279;1015341;-69
2024/03/05 14:23:30;;;;;;;;;;;;;;;13.30;58.34;98743.19;68395;1279;1016166;-60
2024/03/05 14:26:32;;;;;;;;;;;;;;;13.15;58.37;98743.02;68378;1279;1015444;-60
2024/03/05 14:29:35;;;;;;;;;;;;;;;13.15;59.37;98747.56;68406;1279;1015924;-69
2024/03/05 14:32:37;;;;;;;;;;;;;;;13.16;58.81;98753.50;68407;1279;1015483;-70
2024/03/05 14:35:40;;;;;;;;;;;;;;;13.13;59.07;98752.66;68411;1279;1016722;-69
2024/03/05 14:38:43;;;;;;;;;;;;;;;13.10;58.87;98756.02;68404;1279;1015430;-70
2024/03/05 14:41:47;;;;;;;;;;;;;;;13.15;58.43;98759.54;68390;1279;1015671;-60
2024/03/05 14:44:49;;;;;;;;;;;;;;;13.11;58.64;98763.45;68384;1279;1015655;-70
2024/03/05 14:47:52;;;;;;;;;;;;;;;13.15;58.83;98765.84;68405;1279;1015670;-69
2024/03/05 14:50:54;;;;;;;;;;;;;;;13.09;58.11;98772.23;68403;1279;1016107;-66
2024/03/05 14:53:57;;;;;;;;;;;;;;;12.99;58.64;98775.08;68398;1279;1015157;-62
2024/03/05 14:56:59;;;;;;;;;;;;;;;13.19;58.58;98769.92;68394;1279;1015179;-60
2024/03/05 15:00:03;;;;;;;;;;;;;;;13.25;58.64;98772.87;68398;1279;1015908;-65
2024/03/05 15:03:05;;;;;;;;;;;;;;;13.36;58.61;98776.59;68392;1279;1016546;-69
2024/03/05 15:06:11;;;;;;;;;;;;;;;13.42;58.26;98780.08;68406;1279;1015854;-69
2024/03/05 15:09:13;;;;;;;;;;;;;;;13.50;57.73;98782.80;68387;1279;1015249;-68
2024/03/05 15:12:16;;;;;;;;;;;;;;;13.60;57.48;98789.88;68402;1279;1015197;-62
2024/03/05 15:15:19;;;;;;;;;;;;;;;13.75;57.92;98790.61;68383;1279;1015780;-67
2024/03/05 15:18:22;;;;;;;;;;;;;;;14.05;58.16;98791.58;68400;1279;1015376;-61
2024/03/05 15:21:24;;;;;;;;;;;;;;;14.44;56.73;98791.60;68411;1279;1016204;-67
2024/03/05 15:24:28;;;;;;;;;;;;;;;14.37;55.99;98795.48;68398;1279;1015923;-70
2024/03/05 15:27:31;;;;;;;;;;;;;;;14.24;55.56;98799.14;68406;1279;1015628;-70
2024/03/05 15:30:33;;;;;;;;;;;;;;;13.99;55.90;98801.16;68394;1279;1017595;-70
2024/03/05 15:33:36;;;;;;;;;;;;;;;13.92;56.20;98799.63;68405;1279;1015993;-69
2024/03/05 15:36:38;;;;;;;;;;;;;;;13.61;56.64;98795.87;68415;1279;1014478;-67